sensor_id;sensor_type;location;lat;lon;timestamp;P1;durP1;ratioP1;P2;durP2;ratioP2
5995;SDS011;3026;53.612;7.278;2023-10-13T00:00:41;30.70;;;15.97;;
5995;SDS011;3026;53.612;7.278;2023-10-13T00:03:08;28.57;;;17.17;;
5995;SDS011;3026;53.612;7.278;2023-10-13T00:05:40;35.73;;;18.63;;
5995;SDS011;3026;53.612;7.278;2023-10-13T00:08:08;31.60;;;16.40;;
5995;SDS011;3026;53.612;7.278;2023-10-13T00:10:37;32.00;;;17.70;;
5995;SDS011;3026;53.612;7.278;2023-10-13T00:13:05;29.23;;;16.70;;
5995;SDS011;3026;53.612;7.278;2023-10-13T00:15:39;32.20;;;14.87;;
5995;SDS011;3026;53.612;7.278;2023-10-13T00:18:12;30.70;;;16.30;;
5995;SDS011;3026;53.612;7.278;2023-10-13T00:20:45;25.97;;;16.40;;
5995;SDS011;3026;53.612;7.278;2023-10-13T00:23:15;29.97;;;17.57;;
5995;SDS011;3026;53.612;7.278;2023-10-13T00:25:46;27.53;;;16.57;;
5995;SDS011;3026;53.612;7.278;2023-10-13T00:28:23;29.93;;;16.73;;
5995;SDS011;3026;53.612;7.278;2023-10-13T00:30:54;31.40;;;17.23;;
5995;SDS011;3026;53.612;7.278;2023-10-13T00:33:26;33.93;;;18.63;;
5995;SDS011;3026;53.612;7.278;2023-10-13T00:35:54;33.47;;;19.20;;
5995;SDS011;3026;53.612;7.278;2023-10-13T00:38:23;37.53;;;18.93;;
5995;SDS011;3026;53.612;7.278;2023-10-13T00:40:52;37.97;;;19.27;;
5995;SDS011;3026;53.612;7.278;2023-10-13T00:43:20;37.50;;;19.20;;
5995;SDS011;3026;53.612;7.278;2023-10-13T00:46:05;30.63;;;18.50;;
5995;SDS011;3026;53.612;7.278;2023-10-13T00:48:34;35.57;;;18.37;;
5995;SDS011;3026;53.612;7.278;2023-10-13T00:51:10;41.93;;;20.57;;
5995;SDS011;3026;53.612;7.278;2023-10-13T00:53:44;31.83;;;16.53;;
5995;SDS011;3026;53.612;7.278;2023-10-13T00:56:13;30.80;;;17.80;;
5995;SDS011;3026;53.612;7.278;2023-10-13T00:58:53;38.00;;;19.07;;
5995;SDS011;3026;53.612;7.278;2023-10-13T01:01:25;38.57;;;19.43;;
5995;SDS011;3026;53.612;7.278;2023-10-13T01:03:58;39.80;;;18.40;;
5995;SDS011;3026;53.612;7.278;2023-10-13T01:06:25;33.60;;;18.63;;
5995;SDS011;3026;53.612;7.278;2023-10-13T01:08:58;45.23;;;19.67;;
5995;SDS011;3026;53.612;7.278;2023-10-13T01:11:36;41.30;;;18.90;;
5995;SDS011;3026;53.612;7.278;2023-10-13T01:14:04;43.63;;;19.80;;
5995;SDS011;3026;53.612;7.278;2023-10-13T01:16:32;34.97;;;21.17;;
5995;SDS011;3026;53.612;7.278;2023-10-13T01:19:02;33.17;;;18.83;;
5995;SDS011;3026;53.612;7.278;2023-10-13T01:21:30;47.83;;;21.17;;
5995;SDS011;3026;53.612;7.278;2023-10-13T01:24:00;33.63;;;19.47;;
5995;SDS011;3026;53.612;7.278;2023-10-13T01:26:27;43.53;;;20.67;;
5995;SDS011;3026;53.612;7.278;2023-10-13T01:28:56;35.63;;;19.23;;
5995;SDS011;3026;53.612;7.278;2023-10-13T01:31:23;45.10;;;22.50;;
5995;SDS011;3026;53.612;7.278;2023-10-13T01:33:54;39.40;;;21.43;;
5995;SDS011;3026;53.612;7.278;2023-10-13T01:36:25;32.77;;;19.47;;
5995;SDS011;3026;53.612;7.278;2023-10-13T01:38:57;39.80;;;21.53;;
5995;SDS011;3026;53.612;7.278;2023-10-13T01:41:30;44.37;;;22.60;;
5995;SDS011;3026;53.612;7.278;2023-10-13T01:43:56;39.20;;;22.33;;
5995;SDS011;3026;53.612;7.278;2023-10-13T01:46:23;37.33;;;21.60;;
5995;SDS011;3026;53.612;7.278;2023-10-13T01:48:49;35.33;;;20.83;;
5995;SDS011;3026;53.612;7.278;2023-10-13T01:51:22;41.80;;;24.07;;
5995;SDS011;3026;53.612;7.278;2023-10-13T01:53:53;42.07;;;21.83;;
5995;SDS011;3026;53.612;7.278;2023-10-13T01:56:23;41.63;;;22.33;;
5995;SDS011;3026;53.612;7.278;2023-10-13T01:58:51;38.03;;;21.77;;
5995;SDS011;3026;53.612;7.278;2023-10-13T02:01:20;42.67;;;24.17;;
5995;SDS011;3026;53.612;7.278;2023-10-13T02:03:53;41.03;;;21.60;;
5995;SDS011;3026;53.612;7.278;2023-10-13T02:06:28;47.23;;;23.03;;
5995;SDS011;3026;53.612;7.278;2023-10-13T02:08:58;43.90;;;23.73;;
5995;SDS011;3026;53.612;7.278;2023-10-13T02:11:38;44.80;;;23.53;;
5995;SDS011;3026;53.612;7.278;2023-10-13T02:14:05;50.27;;;25.90;;
5995;SDS011;3026;53.612;7.278;2023-10-13T02:16:33;43.87;;;23.70;;
5995;SDS011;3026;53.612;7.278;2023-10-13T02:19:02;40.30;;;22.13;;
5995;SDS011;3026;53.612;7.278;2023-10-13T02:21:30;37.17;;;22.87;;
5995;SDS011;3026;53.612;7.278;2023-10-13T02:24:04;39.80;;;22.07;;
5995;SDS011;3026;53.612;7.278;2023-10-13T02:26:38;39.63;;;22.23;;
5995;SDS011;3026;53.612;7.278;2023-10-13T02:29:06;44.77;;;24.17;;
5995;SDS011;3026;53.612;7.278;2023-10-13T02:31:34;42.17;;;24.70;;
5995;SDS011;3026;53.612;7.278;2023-10-13T02:34:02;41.30;;;23.13;;
5995;SDS011;3026;53.612;7.278;2023-10-13T02:36:31;40.60;;;24.37;;
5995;SDS011;3026;53.612;7.278;2023-10-13T02:39:02;36.10;;;22.03;;
5995;SDS011;3026;53.612;7.278;2023-10-13T02:41:32;43.07;;;23.90;;
5995;SDS011;3026;53.612;7.278;2023-10-13T02:44:02;38.97;;;21.67;;
5995;SDS011;3026;53.612;7.278;2023-10-13T02:46:33;32.47;;;21.03;;
5995;SDS011;3026;53.612;7.278;2023-10-13T02:49:01;34.83;;;21.87;;
5995;SDS011;3026;53.612;7.278;2023-10-13T02:51:35;34.37;;;22.30;;
5995;SDS011;3026;53.612;7.278;2023-10-13T02:54:05;37.80;;;23.27;;
5995;SDS011;3026;53.612;7.278;2023-10-13T02:56:35;30.80;;;20.87;;
5995;SDS011;3026;53.612;7.278;2023-10-13T02:59:03;32.80;;;20.50;;
5995;SDS011;3026;53.612;7.278;2023-10-13T03:01:30;29.17;;;19.30;;
5995;SDS011;3026;53.612;7.278;2023-10-13T03:04:01;38.43;;;21.97;;
5995;SDS011;3026;53.612;7.278;2023-10-13T03:06:29;38.87;;;20.53;;
5995;SDS011;3026;53.612;7.278;2023-10-13T03:09:02;34.93;;;20.63;;
5995;SDS011;3026;53.612;7.278;2023-10-13T03:11:40;31.60;;;20.93;;
5995;SDS011;3026;53.612;7.278;2023-10-13T03:14:14;36.30;;;20.40;;
5995;SDS011;3026;53.612;7.278;2023-10-13T03:16:51;34.63;;;19.97;;
5995;SDS011;3026;53.612;7.278;2023-10-13T03:19:19;36.40;;;21.03;;
5995;SDS011;3026;53.612;7.278;2023-10-13T03:21:47;29.03;;;17.97;;
5995;SDS011;3026;53.612;7.278;2023-10-13T03:24:21;27.67;;;18.57;;
5995;SDS011;3026;53.612;7.278;2023-10-13T03:26:59;26.77;;;17.40;;
5995;SDS011;3026;53.612;7.278;2023-10-13T03:29:33;28.07;;;18.27;;
5995;SDS011;3026;53.612;7.278;2023-10-13T03:32:02;25.80;;;17.00;;
5995;SDS011;3026;53.612;7.278;2023-10-13T03:34:37;24.30;;;17.97;;
5995;SDS011;3026;53.612;7.278;2023-10-13T03:37:15;23.97;;;16.47;;
5995;SDS011;3026;53.612;7.278;2023-10-13T03:39:45;25.30;;;17.10;;
5995;SDS011;3026;53.612;7.278;2023-10-13T03:42:14;23.17;;;16.00;;
5995;SDS011;3026;53.612;7.278;2023-10-13T03:44:46;21.10;;;15.50;;
5995;SDS011;3026;53.612;7.278;2023-10-13T03:47:14;24.33;;;16.00;;
5995;SDS011;3026;53.612;7.278;2023-10-13T03:49:58;24.50;;;15.07;;
5995;SDS011;3026;53.612;7.278;2023-10-13T03:52:39;23.30;;;14.23;;
5995;SDS011;3026;53.612;7.278;2023-10-13T03:55:08;25.73;;;15.43;;
5995;SDS011;3026;53.612;7.278;2023-10-13T03:57:43;21.17;;;13.77;;
5995;SDS011;3026;53.612;7.278;2023-10-13T04:00:14;23.67;;;14.27;;
5995;SDS011;3026;53.612;7.278;2023-10-13T04:02:54;19.17;;;14.13;;
5995;SDS011;3026;53.612;7.278;2023-10-13T04:05:34;25.47;;;15.13;;
5995;SDS011;3026;53.612;7.278;2023-10-13T04:08:06;23.67;;;13.60;;
5995;SDS011;3026;53.612;7.278;2023-10-13T04:11:08;18.33;;;13.57;;
5995;SDS011;3026;53.612;7.278;2023-10-13T04:13:53;17.03;;;13.13;;
5995;SDS011;3026;53.612;7.278;2023-10-13T04:16:38;21.63;;;14.30;;
5995;SDS011;3026;53.612;7.278;2023-10-13T04:19:17;17.20;;;12.50;;
5995;SDS011;3026;53.612;7.278;2023-10-13T04:21:49;16.70;;;12.23;;
5995;SDS011;3026;53.612;7.278;2023-10-13T04:24:39;18.70;;;12.07;;
5995;SDS011;3026;53.612;7.278;2023-10-13T04:27:20;16.87;;;11.43;;
5995;SDS011;3026;53.612;7.278;2023-10-13T04:30:11;15.17;;;11.67;;
5995;SDS011;3026;53.612;7.278;2023-10-13T04:32:44;14.60;;;11.37;;
5995;SDS011;3026;53.612;7.278;2023-10-13T04:35:34;15.37;;;10.67;;
5995;SDS011;3026;53.612;7.278;2023-10-13T04:38:13;12.73;;;10.27;;
5995;SDS011;3026;53.612;7.278;2023-10-13T04:40:45;19.10;;;11.93;;
5995;SDS011;3026;53.612;7.278;2023-10-13T04:43:24;13.33;;;11.43;;
5995;SDS011;3026;53.612;7.278;2023-10-13T04:46:20;15.40;;;11.17;;
5995;SDS011;3026;53.612;7.278;2023-10-13T04:49:01;11.60;;;9.43;;
5995;SDS011;3026;53.612;7.278;2023-10-13T04:51:37;12.73;;;10.90;;
5995;SDS011;3026;53.612;7.278;2023-10-13T04:54:25;14.53;;;11.23;;
5995;SDS011;3026;53.612;7.278;2023-10-13T04:56:59;15.93;;;12.10;;
5995;SDS011;3026;53.612;7.278;2023-10-13T04:59:40;16.33;;;12.30;;
5995;SDS011;3026;53.612;7.278;2023-10-13T05:02:21;18.80;;;13.63;;
5995;SDS011;3026;53.612;7.278;2023-10-13T05:05:14;19.27;;;13.53;;
5995;SDS011;3026;53.612;7.278;2023-10-13T05:08:00;19.40;;;13.07;;
5995;SDS011;3026;53.612;7.278;2023-10-13T05:10:47;18.00;;;14.13;;
5995;SDS011;3026;53.612;7.278;2023-10-13T05:13:35;17.57;;;12.70;;
5995;SDS011;3026;53.612;7.278;2023-10-13T05:16:19;20.53;;;15.17;;
5995;SDS011;3026;53.612;7.278;2023-10-13T05:19:04;17.23;;;13.73;;
5995;SDS011;3026;53.612;7.278;2023-10-13T05:21:49;21.00;;;13.77;;
5995;SDS011;3026;53.612;7.278;2023-10-13T05:24:46;18.17;;;12.87;;
5995;SDS011;3026;53.612;7.278;2023-10-13T05:27:31;18.17;;;13.37;;
5995;SDS011;3026;53.612;7.278;2023-10-13T05:30:15;18.40;;;12.40;;
5995;SDS011;3026;53.612;7.278;2023-10-13T05:33:00;15.77;;;12.43;;
5995;SDS011;3026;53.612;7.278;2023-10-13T05:35:45;14.93;;;12.30;;
5995;SDS011;3026;53.612;7.278;2023-10-13T05:38:29;14.53;;;11.90;;
5995;SDS011;3026;53.612;7.278;2023-10-13T05:41:15;15.77;;;11.30;;
5995;SDS011;3026;53.612;7.278;2023-10-13T05:44:02;16.50;;;12.40;;
5995;SDS011;3026;53.612;7.278;2023-10-13T05:46:46;16.77;;;12.43;;
5995;SDS011;3026;53.612;7.278;2023-10-13T05:49:28;16.17;;;12.90;;
5995;SDS011;3026;53.612;7.278;2023-10-13T05:52:12;18.43;;;13.10;;
5995;SDS011;3026;53.612;7.278;2023-10-13T05:55:05;15.93;;;12.63;;
5995;SDS011;3026;53.612;7.278;2023-10-13T05:57:51;17.10;;;12.63;;
5995;SDS011;3026;53.612;7.278;2023-10-13T06:00:43;15.37;;;11.17;;
5995;SDS011;3026;53.612;7.278;2023-10-13T06:03:30;14.43;;;11.40;;
5995;SDS011;3026;53.612;7.278;2023-10-13T06:06:15;12.93;;;10.13;;
5995;SDS011;3026;53.612;7.278;2023-10-13T06:08:59;14.60;;;11.73;;
5995;SDS011;3026;53.612;7.278;2023-10-13T06:11:44;12.93;;;10.10;;
5995;SDS011;3026;53.612;7.278;2023-10-13T06:14:30;13.60;;;10.70;;
5995;SDS011;3026;53.612;7.278;2023-10-13T06:17:16;12.60;;;10.00;;
5995;SDS011;3026;53.612;7.278;2023-10-13T06:20:00;14.17;;;10.37;;
5995;SDS011;3026;53.612;7.278;2023-10-13T06:22:46;14.43;;;10.90;;
5995;SDS011;3026;53.612;7.278;2023-10-13T06:25:31;15.60;;;10.23;;
5995;SDS011;3026;53.612;7.278;2023-10-13T06:28:21;13.83;;;10.10;;
5995;SDS011;3026;53.612;7.278;2023-10-13T06:31:07;9.00;;;7.53;;
5995;SDS011;3026;53.612;7.278;2023-10-13T06:33:39;9.13;;;7.77;;
5995;SDS011;3026;53.612;7.278;2023-10-13T06:36:10;12.03;;;8.50;;
5995;SDS011;3026;53.612;7.278;2023-10-13T06:38:37;9.13;;;6.90;;
5995;SDS011;3026;53.612;7.278;2023-10-13T06:41:06;6.10;;;5.50;;
5995;SDS011;3026;53.612;7.278;2023-10-13T06:43:34;6.97;;;5.47;;
5995;SDS011;3026;53.612;7.278;2023-10-13T06:46:08;5.00;;;4.07;;
5995;SDS011;3026;53.612;7.278;2023-10-13T06:48:41;4.60;;;4.20;;
5995;SDS011;3026;53.612;7.278;2023-10-13T06:51:09;4.37;;;3.97;;
5995;SDS011;3026;53.612;7.278;2023-10-13T06:53:43;3.60;;;2.87;;
5995;SDS011;3026;53.612;7.278;2023-10-13T06:56:13;3.87;;;3.40;;
5995;SDS011;3026;53.612;7.278;2023-10-13T06:58:47;3.77;;;3.40;;
5995;SDS011;3026;53.612;7.278;2023-10-13T07:01:17;4.23;;;3.30;;
5995;SDS011;3026;53.612;7.278;2023-10-13T07:03:47;4.57;;;3.83;;
5995;SDS011;3026;53.612;7.278;2023-10-13T07:06:19;7.70;;;4.20;;
5995;SDS011;3026;53.612;7.278;2023-10-13T07:08:46;4.10;;;3.70;;
5995;SDS011;3026;53.612;7.278;2023-10-13T07:11:18;5.13;;;3.93;;
5995;SDS011;3026;53.612;7.278;2023-10-13T07:13:58;5.73;;;4.40;;
5995;SDS011;3026;53.612;7.278;2023-10-13T07:16:28;4.83;;;4.43;;
5995;SDS011;3026;53.612;7.278;2023-10-13T07:19:01;5.63;;;4.93;;
5995;SDS011;3026;53.612;7.278;2023-10-13T07:21:33;6.40;;;4.97;;
5995;SDS011;3026;53.612;7.278;2023-10-13T07:24:00;6.67;;;4.87;;
5995;SDS011;3026;53.612;7.278;2023-10-13T07:26:34;5.37;;;4.87;;
5995;SDS011;3026;53.612;7.278;2023-10-13T07:29:07;6.17;;;5.43;;
5995;SDS011;3026;53.612;7.278;2023-10-13T07:31:38;7.43;;;5.80;;
5995;SDS011;3026;53.612;7.278;2023-10-13T07:34:10;7.67;;;5.40;;
5995;SDS011;3026;53.612;7.278;2023-10-13T07:36:51;5.33;;;4.23;;
5995;SDS011;3026;53.612;7.278;2023-10-13T07:39:25;8.83;;;4.50;;
5995;SDS011;3026;53.612;7.278;2023-10-13T07:41:53;5.37;;;4.20;;
5995;SDS011;3026;53.612;7.278;2023-10-13T07:44:29;4.70;;;3.70;;
5995;SDS011;3026;53.612;7.278;2023-10-13T07:47:00;3.97;;;3.67;;
5995;SDS011;3026;53.612;7.278;2023-10-13T07:49:31;4.83;;;3.83;;
5995;SDS011;3026;53.612;7.278;2023-10-13T07:52:03;4.47;;;3.93;;
5995;SDS011;3026;53.612;7.278;2023-10-13T07:54:50;3.93;;;3.50;;
5995;SDS011;3026;53.612;7.278;2023-10-13T07:57:32;3.60;;;3.30;;
5995;SDS011;3026;53.612;7.278;2023-10-13T08:00:00;4.83;;;3.57;;
5995;SDS011;3026;53.612;7.278;2023-10-13T08:02:37;4.53;;;2.90;;
5995;SDS011;3026;53.612;7.278;2023-10-13T08:05:17;5.47;;;3.57;;
5995;SDS011;3026;53.612;7.278;2023-10-13T08:07:54;4.17;;;2.70;;
5995;SDS011;3026;53.612;7.278;2023-10-13T08:10:22;5.97;;;2.57;;
5995;SDS011;3026;53.612;7.278;2023-10-13T08:12:56;5.87;;;3.00;;
5995;SDS011;3026;53.612;7.278;2023-10-13T08:15:24;7.33;;;4.13;;
5995;SDS011;3026;53.612;7.278;2023-10-13T08:18:01;3.97;;;3.27;;
5995;SDS011;3026;53.612;7.278;2023-10-13T08:20:43;9.30;;;3.40;;
5995;SDS011;3026;53.612;7.278;2023-10-13T08:23:10;7.13;;;3.53;;
5995;SDS011;3026;53.612;7.278;2023-10-13T08:25:39;5.30;;;3.20;;
5995;SDS011;3026;53.612;7.278;2023-10-13T08:28:24;8.60;;;3.73;;
5995;SDS011;3026;53.612;7.278;2023-10-13T08:31:09;5.63;;;3.90;;
5995;SDS011;3026;53.612;7.278;2023-10-13T08:33:49;5.77;;;3.40;;
5995;SDS011;3026;53.612;7.278;2023-10-13T08:36:17;10.43;;;4.20;;
5995;SDS011;3026;53.612;7.278;2023-10-13T08:38:55;7.03;;;3.73;;
5995;SDS011;3026;53.612;7.278;2023-10-13T08:41:22;8.50;;;4.00;;
5995;SDS011;3026;53.612;7.278;2023-10-13T08:44:06;5.93;;;3.70;;
5995;SDS011;3026;53.612;7.278;2023-10-13T08:46:56;8.07;;;3.97;;
5995;SDS011;3026;53.612;7.278;2023-10-13T08:49:43;5.97;;;3.87;;
5995;SDS011;3026;53.612;7.278;2023-10-13T08:52:16;7.30;;;3.97;;
5995;SDS011;3026;53.612;7.278;2023-10-13T08:55:11;8.13;;;4.90;;
5995;SDS011;3026;53.612;7.278;2023-10-13T08:58:01;8.97;;;4.70;;
5995;SDS011;3026;53.612;7.278;2023-10-13T09:00:38;7.93;;;3.97;;
5995;SDS011;3026;53.612;7.278;2023-10-13T09:03:37;10.97;;;4.40;;
5995;SDS011;3026;53.612;7.278;2023-10-13T09:06:12;8.57;;;4.23;;
5995;SDS011;3026;53.612;7.278;2023-10-13T09:08:51;7.53;;;4.90;;
5995;SDS011;3026;53.612;7.278;2023-10-13T09:11:31;8.30;;;3.50;;
5995;SDS011;3026;53.612;7.278;2023-10-13T09:14:14;7.43;;;4.23;;
5995;SDS011;3026;53.612;7.278;2023-10-13T09:17:01;8.87;;;5.00;;
5995;SDS011;3026;53.612;7.278;2023-10-13T09:19:45;9.33;;;4.23;;
5995;SDS011;3026;53.612;7.278;2023-10-13T09:22:34;5.80;;;3.60;;
5995;SDS011;3026;53.612;7.278;2023-10-13T09:25:02;9.13;;;3.80;;
5995;SDS011;3026;53.612;7.278;2023-10-13T09:27:32;12.93;;;4.77;;
5995;SDS011;3026;53.612;7.278;2023-10-13T09:29:59;11.30;;;4.63;;
5995;SDS011;3026;53.612;7.278;2023-10-13T09:32:41;8.83;;;4.53;;
5995;SDS011;3026;53.612;7.278;2023-10-13T09:35:11;7.03;;;4.67;;
5995;SDS011;3026;53.612;7.278;2023-10-13T09:37:50;8.40;;;4.67;;
5995;SDS011;3026;53.612;7.278;2023-10-13T09:40:24;9.13;;;4.80;;
5995;SDS011;3026;53.612;7.278;2023-10-13T09:42:52;6.73;;;4.17;;
5995;SDS011;3026;53.612;7.278;2023-10-13T09:45:23;9.67;;;4.70;;
5995;SDS011;3026;53.612;7.278;2023-10-13T09:47:55;8.40;;;5.20;;
5995;SDS011;3026;53.612;7.278;2023-10-13T09:50:34;9.17;;;4.97;;
5995;SDS011;3026;53.612;7.278;2023-10-13T09:53:11;9.33;;;4.33;;
5995;SDS011;3026;53.612;7.278;2023-10-13T09:55:41;11.23;;;5.43;;
5995;SDS011;3026;53.612;7.278;2023-10-13T09:58:10;10.63;;;4.40;;
5995;SDS011;3026;53.612;7.278;2023-10-13T10:00:43;23.13;;;6.60;;
5995;SDS011;3026;53.612;7.278;2023-10-13T10:03:15;12.63;;;5.00;;
5995;SDS011;3026;53.612;7.278;2023-10-13T10:05:55;8.10;;;5.27;;
5995;SDS011;3026;53.612;7.278;2023-10-13T10:08:41;9.60;;;5.30;;
5995;SDS011;3026;53.612;7.278;2023-10-13T10:14:23;12.03;;;5.93;;
5995;SDS011;3026;53.612;7.278;2023-10-13T10:17:08;10.43;;;5.03;;
5995;SDS011;3026;53.612;7.278;2023-10-13T10:19:49;11.10;;;5.67;;
5995;SDS011;3026;53.612;7.278;2023-10-13T10:22:26;9.77;;;5.40;;
5995;SDS011;3026;53.612;7.278;2023-10-13T10:24:59;11.80;;;4.87;;
5995;SDS011;3026;53.612;7.278;2023-10-13T10:27:29;11.90;;;5.53;;
5995;SDS011;3026;53.612;7.278;2023-10-13T10:29:57;10.90;;;5.23;;
5995;SDS011;3026;53.612;7.278;2023-10-13T10:32:33;14.77;;;5.30;;
5995;SDS011;3026;53.612;7.278;2023-10-13T10:35:03;11.17;;;4.77;;
5995;SDS011;3026;53.612;7.278;2023-10-13T10:37:40;17.37;;;5.63;;
5995;SDS011;3026;53.612;7.278;2023-10-13T10:40:14;10.67;;;4.57;;
5995;SDS011;3026;53.612;7.278;2023-10-13T10:43:06;13.50;;;5.03;;
5995;SDS011;3026;53.612;7.278;2023-10-13T10:45:34;12.27;;;5.37;;
5995;SDS011;3026;53.612;7.278;2023-10-13T10:48:02;8.87;;;4.37;;
5995;SDS011;3026;53.612;7.278;2023-10-13T10:50:43;14.63;;;4.70;;
5995;SDS011;3026;53.612;7.278;2023-10-13T10:53:11;15.47;;;5.17;;
5995;SDS011;3026;53.612;7.278;2023-10-13T10:55:39;8.03;;;5.37;;
5995;SDS011;3026;53.612;7.278;2023-10-13T10:58:07;10.27;;;5.10;;
5995;SDS011;3026;53.612;7.278;2023-10-13T11:01:04;11.73;;;4.93;;
5995;SDS011;3026;53.612;7.278;2023-10-13T11:03:35;12.77;;;4.47;;
5995;SDS011;3026;53.612;7.278;2023-10-13T11:06:11;11.23;;;5.40;;
5995;SDS011;3026;53.612;7.278;2023-10-13T11:08:43;11.13;;;5.10;;
5995;SDS011;3026;53.612;7.278;2023-10-13T11:11:18;11.27;;;4.73;;
5995;SDS011;3026;53.612;7.278;2023-10-13T11:13:55;11.80;;;4.53;;
5995;SDS011;3026;53.612;7.278;2023-10-13T11:16:28;15.83;;;5.73;;
5995;SDS011;3026;53.612;7.278;2023-10-13T11:19:01;11.57;;;4.63;;
5995;SDS011;3026;53.612;7.278;2023-10-13T11:21:30;12.07;;;4.53;;
5995;SDS011;3026;53.612;7.278;2023-10-13T11:23:57;8.17;;;4.33;;
5995;SDS011;3026;53.612;7.278;2023-10-13T11:26:35;12.73;;;4.90;;
5995;SDS011;3026;53.612;7.278;2023-10-13T11:29:13;13.27;;;4.70;;
5995;SDS011;3026;53.612;7.278;2023-10-13T11:31:40;12.03;;;4.47;;
5995;SDS011;3026;53.612;7.278;2023-10-13T11:34:09;9.43;;;4.43;;
5995;SDS011;3026;53.612;7.278;2023-10-13T11:36:41;9.93;;;4.60;;
5995;SDS011;3026;53.612;7.278;2023-10-13T11:39:08;14.47;;;4.87;;
5995;SDS011;3026;53.612;7.278;2023-10-13T11:41:44;11.83;;;5.10;;
5995;SDS011;3026;53.612;7.278;2023-10-13T11:44:19;11.93;;;4.83;;
5995;SDS011;3026;53.612;7.278;2023-10-13T11:46:56;10.60;;;4.60;;
5995;SDS011;3026;53.612;7.278;2023-10-13T11:49:56;16.10;;;4.77;;
5995;SDS011;3026;53.612;7.278;2023-10-13T11:52:24;19.43;;;4.60;;
5995;SDS011;3026;53.612;7.278;2023-10-13T11:54:54;16.73;;;5.30;;
5995;SDS011;3026;53.612;7.278;2023-10-13T11:57:24;16.50;;;4.97;;
5995;SDS011;3026;53.612;7.278;2023-10-13T11:59:51;14.47;;;4.57;;
5995;SDS011;3026;53.612;7.278;2023-10-13T12:02:50;15.10;;;4.47;;
5995;SDS011;3026;53.612;7.278;2023-10-13T12:05:37;10.47;;;4.43;;
5995;SDS011;3026;53.612;7.278;2023-10-13T12:08:31;13.37;;;5.07;;
5995;SDS011;3026;53.612;7.278;2023-10-13T12:11:06;16.33;;;4.57;;
5995;SDS011;3026;53.612;7.278;2023-10-13T12:13:48;17.43;;;4.80;;
5995;SDS011;3026;53.612;7.278;2023-10-13T12:16:15;17.17;;;4.43;;
5995;SDS011;3026;53.612;7.278;2023-10-13T12:18:45;19.03;;;5.37;;
5995;SDS011;3026;53.612;7.278;2023-10-13T12:21:18;10.13;;;4.60;;
5995;SDS011;3026;53.612;7.278;2023-10-13T12:23:50;16.73;;;4.67;;
5995;SDS011;3026;53.612;7.278;2023-10-13T12:26:22;8.23;;;4.37;;
5995;SDS011;3026;53.612;7.278;2023-10-13T12:28:59;12.20;;;4.70;;
5995;SDS011;3026;53.612;7.278;2023-10-13T12:31:32;19.93;;;4.80;;
5995;SDS011;3026;53.612;7.278;2023-10-13T12:34:05;16.80;;;4.27;;
5995;SDS011;3026;53.612;7.278;2023-10-13T12:36:39;14.60;;;4.63;;
5995;SDS011;3026;53.612;7.278;2023-10-13T12:39:18;14.63;;;5.03;;
5995;SDS011;3026;53.612;7.278;2023-10-13T12:42:06;16.47;;;5.40;;
5995;SDS011;3026;53.612;7.278;2023-10-13T12:44:52;13.33;;;5.40;;
5995;SDS011;3026;53.612;7.278;2023-10-13T12:47:36;11.87;;;4.73;;
5995;SDS011;3026;53.612;7.278;2023-10-13T12:50:22;14.30;;;5.30;;
5995;SDS011;3026;53.612;7.278;2023-10-13T12:52:59;12.80;;;4.77;;
5995;SDS011;3026;53.612;7.278;2023-10-13T12:55:28;9.17;;;5.07;;
5995;SDS011;3026;53.612;7.278;2023-10-13T12:57:56;10.87;;;5.70;;
5995;SDS011;3026;53.612;7.278;2023-10-13T13:00:26;16.33;;;5.13;;
5995;SDS011;3026;53.612;7.278;2023-10-13T13:02:58;13.07;;;5.43;;
5995;SDS011;3026;53.612;7.278;2023-10-13T13:05:27;13.73;;;5.23;;
5995;SDS011;3026;53.612;7.278;2023-10-13T13:07:57;8.23;;;4.60;;
5995;SDS011;3026;53.612;7.278;2023-10-13T13:10:24;10.50;;;5.60;;
5995;SDS011;3026;53.612;7.278;2023-10-13T13:13:01;13.33;;;6.07;;
5995;SDS011;3026;53.612;7.278;2023-10-13T13:15:31;13.43;;;6.67;;
5995;SDS011;3026;53.612;7.278;2023-10-13T13:17:58;12.63;;;5.13;;
5995;SDS011;3026;53.612;7.278;2023-10-13T13:20:35;15.13;;;5.90;;
5995;SDS011;3026;53.612;7.278;2023-10-13T13:23:04;14.30;;;6.10;;
5995;SDS011;3026;53.612;7.278;2023-10-13T13:25:31;14.03;;;6.40;;
5995;SDS011;3026;53.612;7.278;2023-10-13T13:27:59;13.47;;;5.70;;
5995;SDS011;3026;53.612;7.278;2023-10-13T13:30:32;17.97;;;6.73;;
5995;SDS011;3026;53.612;7.278;2023-10-13T13:33:00;17.10;;;5.57;;
5995;SDS011;3026;53.612;7.278;2023-10-13T13:35:36;13.43;;;5.90;;
5995;SDS011;3026;53.612;7.278;2023-10-13T13:38:03;13.73;;;6.23;;
5995;SDS011;3026;53.612;7.278;2023-10-13T13:40:36;14.63;;;6.47;;
5995;SDS011;3026;53.612;7.278;2023-10-13T13:43:04;16.83;;;6.83;;
5995;SDS011;3026;53.612;7.278;2023-10-13T13:45:37;16.20;;;6.77;;
5995;SDS011;3026;53.612;7.278;2023-10-13T13:48:07;12.70;;;6.47;;
5995;SDS011;3026;53.612;7.278;2023-10-13T13:50:40;11.67;;;6.40;;
5995;SDS011;3026;53.612;7.278;2023-10-13T13:53:10;14.53;;;6.87;;
5995;SDS011;3026;53.612;7.278;2023-10-13T13:55:39;11.93;;;6.13;;
5995;SDS011;3026;53.612;7.278;2023-10-13T13:58:06;14.40;;;7.10;;
5995;SDS011;3026;53.612;7.278;2023-10-13T14:00:38;12.97;;;6.70;;
5995;SDS011;3026;53.612;7.278;2023-10-13T14:03:13;16.83;;;6.63;;
5995;SDS011;3026;53.612;7.278;2023-10-13T14:05:56;14.77;;;6.07;;
5995;SDS011;3026;53.612;7.278;2023-10-13T14:08:24;13.70;;;7.10;;
5995;SDS011;3026;53.612;7.278;2023-10-13T14:10:52;16.17;;;7.27;;
5995;SDS011;3026;53.612;7.278;2023-10-13T14:13:37;16.37;;;6.50;;
5995;SDS011;3026;53.612;7.278;2023-10-13T14:16:17;18.67;;;7.80;;
5995;SDS011;3026;53.612;7.278;2023-10-13T14:18:46;13.27;;;6.40;;
5995;SDS011;3026;53.612;7.278;2023-10-13T14:21:15;13.57;;;7.03;;
5995;SDS011;3026;53.612;7.278;2023-10-13T14:23:44;15.67;;;6.73;;
5995;SDS011;3026;53.612;7.278;2023-10-13T14:26:13;16.50;;;7.37;;
5995;SDS011;3026;53.612;7.278;2023-10-13T14:28:42;16.00;;;7.20;;
5995;SDS011;3026;53.612;7.278;2023-10-13T14:31:19;21.47;;;7.80;;
5995;SDS011;3026;53.612;7.278;2023-10-13T14:33:47;13.23;;;7.23;;
5995;SDS011;3026;53.612;7.278;2023-10-13T14:36:14;15.13;;;7.30;;
5995;SDS011;3026;53.612;7.278;2023-10-13T14:38:46;12.60;;;7.37;;
5995;SDS011;3026;53.612;7.278;2023-10-13T14:41:15;18.40;;;6.90;;
5995;SDS011;3026;53.612;7.278;2023-10-13T14:43:45;18.07;;;6.80;;
5995;SDS011;3026;53.612;7.278;2023-10-13T14:46:14;12.23;;;6.80;;
5995;SDS011;3026;53.612;7.278;2023-10-13T14:48:46;11.10;;;6.40;;
5995;SDS011;3026;53.612;7.278;2023-10-13T14:51:15;15.20;;;6.53;;
5995;SDS011;3026;53.612;7.278;2023-10-13T14:53:43;14.50;;;6.63;;
5995;SDS011;3026;53.612;7.278;2023-10-13T14:56:11;13.37;;;6.97;;
5995;SDS011;3026;53.612;7.278;2023-10-13T14:58:40;13.50;;;7.10;;
5995;SDS011;3026;53.612;7.278;2023-10-13T15:01:10;17.67;;;6.20;;
5995;SDS011;3026;53.612;7.278;2023-10-13T15:03:41;14.47;;;6.33;;
5995;SDS011;3026;53.612;7.278;2023-10-13T15:06:17;10.83;;;5.80;;
5995;SDS011;3026;53.612;7.278;2023-10-13T15:08:46;15.07;;;6.30;;
5995;SDS011;3026;53.612;7.278;2023-10-13T15:11:14;13.40;;;6.63;;
5995;SDS011;3026;53.612;7.278;2023-10-13T15:13:44;14.80;;;5.93;;
5995;SDS011;3026;53.612;7.278;2023-10-13T15:16:18;13.30;;;6.40;;
5995;SDS011;3026;53.612;7.278;2023-10-13T15:18:49;16.43;;;6.37;;
5995;SDS011;3026;53.612;7.278;2023-10-13T15:21:22;16.13;;;6.60;;
5995;SDS011;3026;53.612;7.278;2023-10-13T15:23:56;17.37;;;7.57;;
5995;SDS011;3026;53.612;7.278;2023-10-13T15:26:25;16.57;;;6.73;;
5995;SDS011;3026;53.612;7.278;2023-10-13T15:28:52;14.97;;;7.20;;
5995;SDS011;3026;53.612;7.278;2023-10-13T15:31:21;13.53;;;6.40;;
5995;SDS011;3026;53.612;7.278;2023-10-13T15:34:03;12.57;;;6.00;;
5995;SDS011;3026;53.612;7.278;2023-10-13T15:36:36;16.00;;;6.77;;
5995;SDS011;3026;53.612;7.278;2023-10-13T15:39:04;13.37;;;6.93;;
5995;SDS011;3026;53.612;7.278;2023-10-13T15:41:33;13.43;;;7.03;;
5995;SDS011;3026;53.612;7.278;2023-10-13T15:44:03;13.87;;;6.87;;
5995;SDS011;3026;53.612;7.278;2023-10-13T15:46:37;15.33;;;6.90;;